createdAt,value
2023-03-01T00:01:08.256Z,97753.84
2023-03-01T00:03:35.864Z,97766.03
2023-03-01T00:06:04.065Z,97757.44
2023-03-01T00:08:33.847Z,97753.19
2023-03-01T00:11:06.187Z,97760.13
2023-03-01T00:13:33.138Z,97766.19
2023-03-01T00:15:59.693Z,97764.53
2023-03-01T00:18:26.235Z,97763.66
2023-03-01T00:20:54.545Z,97757.69
2023-03-01T00:23:21.855Z,97761.22
2023-03-01T00:25:49.057Z,97756.09
2023-03-01T00:28:15.629Z,97754.47
2023-03-01T00:30:42.326Z,97758.06
2023-03-01T00:33:09.450Z,97754.78
2023-03-01T00:35:36.052Z,97755.75
2023-03-01T00:38:04.540Z,97755.00
2023-03-01T00:40:33.800Z,97755.13
2023-03-01T00:43:00.496Z,97749.25
2023-03-01T00:45:28.095Z,97753.72
2023-03-01T00:47:54.807Z,97758.19
2023-03-01T00:50:21.535Z,97754.03
2023-03-01T00:52:48.067Z,97751.63
2023-03-01T00:55:14.567Z,97741.38
2023-03-01T00:57:41.150Z,97738.06
2023-03-01T01:00:08.844Z,97738.09
2023-03-01T01:02:35.736Z,97739.00
2023-03-01T01:05:02.271Z,97731.38
2023-03-01T01:07:28.791Z,97722.84
2023-03-01T01:09:55.330Z,97719.47
2023-03-01T01:12:21.922Z,97721.31
2023-03-01T01:14:48.483Z,97718.78
2023-03-01T01:17:14.977Z,97719.69
2023-03-01T01:19:41.494Z,97713.75
2023-03-01T01:22:08.244Z,97714.66
2023-03-01T01:24:34.719Z,97715.63
2023-03-01T01:27:01.186Z,97713.94
2023-03-01T01:29:27.765Z,97715.66
2023-03-01T01:31:54.276Z,97708.00
2023-03-01T01:34:22.615Z,97704.53
2023-03-01T01:36:51.218Z,97700.25
2023-03-01T01:39:17.946Z,97695.09
2023-03-01T01:41:44.527Z,97688.31
2023-03-01T01:44:15.997Z,97690.06
2023-03-01T01:46:56.597Z,97683.22
2023-03-01T01:49:25.632Z,97688.44
2023-03-01T01:51:58.997Z,97687.59
2023-03-01T01:54:39.148Z,97686.72
2023-03-01T01:57:08.398Z,97690.16
2023-03-01T01:59:35.581Z,97688.44
2023-03-01T02:02:04.441Z,97684.13
2023-03-01T02:04:33.147Z,97684.22
2023-03-01T02:07:07.603Z,97690.31
2023-03-01T02:09:36.500Z,97688.59
2023-03-01T02:12:05.260Z,97680.06
2023-03-01T02:14:31.847Z,97686.16
2023-03-01T02:16:58.438Z,97689.63
2023-03-01T02:19:47.262Z,97681.06
2023-03-01T02:22:31.412Z,97682.78
2023-03-01T02:25:19.773Z,97677.63
2023-03-01T02:28:01.385Z,97674.25
2023-03-01T02:30:28.711Z,97673.41
2023-03-01T02:33:03.697Z,97668.28
2023-03-01T02:35:35.621Z,97671.78
2023-03-01T02:38:03.864Z,97664.03
2023-03-01T02:40:34.226Z,97664.88
2023-03-01T02:43:00.843Z,97670.03
2023-03-01T02:45:28.274Z,97668.28
2023-03-01T02:47:56.240Z,97669.13
2023-03-01T02:50:25.444Z,97665.72
2023-03-01T02:53:02.443Z,97666.63
2023-03-01T02:55:29.121Z,97663.25
2023-03-01T02:57:57.312Z,97658.97
2023-03-01T03:00:36.719Z,97659.00
2023-03-01T03:03:03.352Z,97658.13
2023-03-01T03:05:32.127Z,97656.44
2023-03-01T03:08:01.220Z,97655.59
2023-03-01T03:10:30.513Z,97658.25
2023-03-01T03:13:02.985Z,97653.09
2023-03-01T03:15:30.582Z,97654.84
2023-03-01T03:17:59.362Z,97659.19
2023-03-01T03:20:28.039Z,97646.22
2023-03-01T03:22:56.628Z,97648.00
2023-03-01T03:25:24.188Z,97648.88
2023-03-01T03:27:57.594Z,97647.16
2023-03-01T03:30:30.247Z,97645.41
2023-03-01T03:32:58.191Z,97639.34
2023-03-01T03:35:26.953Z,97637.63
2023-03-01T03:38:02.966Z,97634.16
2023-03-01T03:40:37.859Z,97636.75
2023-03-01T03:43:05.779Z,97639.31
2023-03-01T03:45:34.460Z,97641.91
2023-03-01T03:48:02.064Z,97635.91
2023-03-01T03:50:28.779Z,97643.66
2023-03-01T03:52:55.362Z,97638.47
2023-03-01T03:55:21.991Z,97631.59
2023-03-01T03:57:55.493Z,97641.06
2023-03-01T04:00:24.889Z,97632.44
2023-03-01T04:02:52.117Z,97634.22
2023-03-01T04:05:19.783Z,97638.53
2023-03-01T04:07:46.701Z,97634.28
2023-03-01T04:10:16.363Z,97636.00
2023-03-01T04:12:45.966Z,97646.38
2023-03-01T04:15:15.788Z,97638.59
2023-03-01T04:17:46.173Z,97637.72
2023-03-01T04:20:18.291Z,97642.91
2023-03-01T04:22:47.961Z,97637.78
2023-03-01T04:25:15.599Z,97634.34
2023-03-01T04:27:42.270Z,97635.25
2023-03-01T04:30:09.868Z,97639.56
2023-03-01T04:32:36.440Z,97636.13
2023-03-01T04:35:03.036Z,97636.19
2023-03-01T04:37:30.687Z,97631.91
2023-03-01T04:39:57.201Z,97632.81
2023-03-01T04:42:24.077Z,97641.44
2023-03-01T04:44:52.262Z,97638.06
2023-03-01T04:47:18.818Z,97632.91
2023-03-01T04:49:45.813Z,97628.59
2023-03-01T04:52:12.441Z,97630.34
2023-03-01T04:54:38.929Z,97632.06
2023-03-01T04:57:05.469Z,97639.78
2023-03-01T04:59:31.967Z,97633.75
2023-03-01T05:01:58.593Z,97632.03
2023-03-01T05:04:26.342Z,97626.06
2023-03-01T05:06:54.568Z,97627.78
2023-03-01T05:09:21.191Z,97633.81
2023-03-01T05:11:47.855Z,97631.25
2023-03-01T05:14:14.447Z,97623.56
2023-03-01T05:16:40.951Z,97639.06
2023-03-01T05:19:12.416Z,97627.78
2023-03-01T05:21:59.869Z,97635.59
2023-03-01T05:24:26.852Z,97624.44
2023-03-01T05:26:54.000Z,97627.94
2023-03-01T05:29:25.907Z,97626.25
2023-03-01T05:31:57.291Z,97625.38
2023-03-01T05:34:28.788Z,97636.66
2023-03-01T05:36:55.550Z,97625.47
2023-03-01T05:39:24.206Z,97627.22
2023-03-01T05:41:55.726Z,97625.53
2023-03-01T05:44:22.596Z,97628.94
2023-03-01T05:46:49.427Z,97628.13
2023-03-01T05:49:17.045Z,97631.59
2023-03-01T05:51:44.781Z,97632.44
2023-03-01T05:54:11.288Z,97628.97
2023-03-01T05:56:38.029Z,97628.06
2023-03-01T05:59:08.764Z,97617.75
2023-03-01T06:01:36.246Z,97626.34
2023-03-01T06:04:04.501Z,97622.94
2023-03-01T06:06:35.508Z,97622.91
2023-03-01T06:09:02.031Z,97630.59
2023-03-01T06:11:28.596Z,97636.56
2023-03-01T06:13:55.111Z,97639.16
2023-03-01T06:16:21.698Z,97633.94
2023-03-01T06:18:48.239Z,97640.78
2023-03-01T06:21:14.846Z,97632.09
2023-03-01T06:23:41.333Z,97634.44
2023-03-01T06:26:09.074Z,97634.13
2023-03-01T06:28:36.854Z,97635.47
2023-03-01T06:31:03.829Z,97637.72
2023-03-01T06:33:30.364Z,97640.81
2023-03-01T06:35:57.628Z,97643.91
2023-03-01T06:38:25.284Z,97645.34
2023-03-01T06:40:57.390Z,97645.91
2023-03-01T06:43:24.759Z,97647.31
2023-03-01T06:45:51.712Z,97650.50
2023-03-01T06:48:18.526Z,97643.34
2023-03-01T06:50:45.196Z,97648.19
2023-03-01T06:53:11.813Z,97642.66
2023-03-01T06:55:38.412Z,97650.13
2023-03-01T06:58:05.202Z,97648.81
2023-03-01T07:00:31.799Z,97635.63
2023-03-01T07:03:03.476Z,97632.66
2023-03-01T07:05:31.272Z,97632.41
2023-03-01T07:07:57.823Z,97625.81
2023-03-01T07:10:24.694Z,97615.75
2023-03-01T07:12:51.178Z,97609.13
2023-03-01T07:15:17.751Z,97622.00
2023-03-01T07:17:45.583Z,97613.91
2023-03-01T07:20:12.749Z,97615.28
2023-03-01T07:22:42.861Z,97624.25
2023-03-01T07:25:10.085Z,97619.00
2023-03-01T07:27:37.567Z,97622.47
2023-03-01T07:30:04.885Z,97615.03
2023-03-01T07:32:31.557Z,97608.63
2023-03-01T07:34:58.130Z,97612.97
2023-03-01T07:37:24.656Z,97613.63
2023-03-01T07:39:51.185Z,97608.72
2023-03-01T07:42:17.710Z,97609.91
2023-03-01T07:44:44.209Z,97602.56
2023-03-01T07:47:10.698Z,97602.09
2023-03-01T07:49:37.182Z,97600.06
2023-03-01T07:52:03.806Z,97588.22
2023-03-01T07:54:30.410Z,97584.31
2023-03-01T07:56:57.911Z,97583.84
2023-03-01T07:59:29.865Z,97587.25
2023-03-01T08:01:59.665Z,97581.09
2023-03-01T08:04:27.663Z,97584.53
2023-03-01T08:06:55.617Z,97583.47
2023-03-01T08:09:22.730Z,97572.59
2023-03-01T08:11:49.406Z,97584.88
2023-03-01T08:14:15.962Z,97573.34
2023-03-01T08:16:42.541Z,97570.53
2023-03-01T08:19:11.777Z,97561.75
2023-03-01T08:21:38.920Z,97562.34
2023-03-01T08:24:06.941Z,97566.59
2023-03-01T08:26:33.892Z,97570.66
2023-03-01T08:29:01.289Z,97563.94
2023-03-01T08:31:32.005Z,97559.16
2023-03-01T08:34:01.228Z,97555.44
2023-03-01T08:36:30.810Z,97559.59
2023-03-01T08:38:57.754Z,97551.81
2023-03-01T08:41:24.981Z,97559.78
2023-03-01T08:43:52.186Z,97553.81
2023-03-01T08:46:18.796Z,97553.00
2023-03-01T08:48:45.568Z,97543.50
2023-03-01T08:51:18.072Z,97552.53
2023-03-01T08:53:45.137Z,97551.28
2023-03-01T08:56:12.251Z,97548.50
2023-03-01T08:58:40.927Z,97552.66
2023-03-01T09:01:11.814Z,97546.50
2023-03-01T09:03:38.655Z,97545.81
2023-03-01T09:06:06.521Z,97548.28
2023-03-01T09:08:36.505Z,97541.81
2023-03-01T09:11:04.712Z,97547.50
2023-03-01T09:13:34.641Z,97542.44
2023-03-01T09:16:07.137Z,97536.81
2023-03-01T09:18:34.921Z,97528.84
2023-03-01T09:21:10.047Z,97527.97
2023-03-01T09:23:42.339Z,97532.00
2023-03-01T09:26:35.096Z,97526.31
2023-03-01T09:29:01.675Z,97520.94
2023-03-01T09:31:28.133Z,97522.81
2023-03-01T09:33:55.714Z,97536.56
2023-03-01T09:36:24.746Z,97530.16
2023-03-01T09:38:53.849Z,97512.69
2023-03-01T09:41:44.760Z,97521.31
2023-03-01T09:44:32.699Z,97515.56
2023-03-01T09:47:00.483Z,97511.94
2023-03-01T09:49:36.246Z,97507.72
2023-03-01T09:52:27.575Z,97498.97
2023-03-01T09:54:58.228Z,97491.47
2023-03-01T09:57:48.967Z,97499.50
2023-03-01T10:00:44.161Z,97498.25
2023-03-01T10:03:33.711Z,97491.91
2023-03-01T10:06:05.550Z,97497.28
2023-03-01T10:08:52.043Z,97494.16
2023-03-01T10:11:25.101Z,97491.19
2023-03-01T10:14:00.175Z,97481.59
2023-03-01T10:16:48.795Z,97472.72
2023-03-01T10:19:23.158Z,97475.50
2023-03-01T10:21:51.871Z,97461.03
2023-03-01T10:24:22.482Z,97464.66
2023-03-01T10:27:01.780Z,97456.63
2023-03-01T10:29:36.109Z,97453.13
2023-03-01T10:32:07.605Z,97454.19
2023-03-01T10:34:36.401Z,97449.63
2023-03-01T10:37:15.159Z,97453.44
2023-03-01T10:39:57.626Z,97437.22
2023-03-01T10:42:33.255Z,97435.38
2023-03-01T10:45:25.937Z,97443.84
2023-03-01T10:48:25.398Z,97432.84
2023-03-01T10:51:07.097Z,97413.81
2023-03-01T10:53:41.754Z,97405.41
2023-03-01T10:56:16.538Z,97397.28
2023-03-01T10:58:59.734Z,97381.94
2023-03-01T11:01:36.215Z,97380.34
2023-03-01T11:04:08.619Z,97389.34
2023-03-01T11:06:36.745Z,97373.25
2023-03-01T11:09:28.306Z,97374.63
2023-03-01T11:12:01.678Z,97367.41
2023-03-01T11:14:38.870Z,97358.19
2023-03-01T11:17:14.731Z,97348.53
2023-03-01T11:19:42.532Z,97342.34
2023-03-01T11:22:14.433Z,97332.09
2023-03-01T11:25:08.754Z,97338.09
2023-03-01T11:27:41.869Z,97330.44
2023-03-01T11:30:21.427Z,97328.66
2023-03-01T11:33:08.073Z,97325.28
2023-03-01T11:35:43.196Z,97324.66
2023-03-01T11:38:31.835Z,97330.81
2023-03-01T11:41:01.329Z,97322.50
2023-03-01T11:44:06.696Z,97315.47
2023-03-01T11:46:33.300Z,97312.66
2023-03-01T11:49:07.228Z,97300.91
2023-03-01T11:52:01.774Z,97299.53
2023-03-01T11:54:52.168Z,97286.94
2023-03-01T11:57:42.891Z,97279.72
2023-03-01T12:00:49.169Z,97291.25
2023-03-01T12:03:19.065Z,97283.97
2023-03-01T12:06:04.630Z,97275.47
2023-03-01T12:08:59.380Z,97269.19
2023-03-01T12:11:38.256Z,97273.03
2023-03-01T12:14:23.490Z,97271.91
2023-03-01T12:17:07.628Z,97264.72
2023-03-01T12:20:15.239Z,97259.66
2023-03-01T12:23:11.260Z,97247.38
2023-03-01T12:26:03.567Z,97252.78
2023-03-01T12:28:47.141Z,97240.03
2023-03-01T12:31:35.716Z,97237.50
2023-03-01T12:34:21.157Z,97247.03
2023-03-01T12:37:12.690Z,97243.09
2023-03-01T12:40:17.397Z,97238.19
2023-03-01T12:42:58.524Z,97239.34
2023-03-01T12:45:52.023Z,97233.75
2023-03-01T12:48:46.383Z,97232.16
2023-03-01T12:51:16.808Z,97229.75
2023-03-01T12:53:48.815Z,97232.78
2023-03-01T12:56:24.907Z,97222.44
2023-03-01T12:59:16.396Z,97233.56
2023-03-01T13:02:03.420Z,97221.25
2023-03-01T13:04:55.606Z,97198.16
2023-03-01T13:07:41.875Z,97197.34
2023-03-01T13:10:17.808Z,97208.34
2023-03-01T13:12:54.065Z,97196.06
2023-03-01T13:15:23.574Z,97187.31
2023-03-01T13:18:16.348Z,97188.06
2023-03-01T13:20:42.995Z,97187.03
2023-03-01T13:23:14.655Z,97194.00
2023-03-01T13:25:59.833Z,97192.44
2023-03-01T13:28:35.760Z,97187.13
2023-03-01T13:31:07.726Z,97189.53
2023-03-01T13:33:42.029Z,97182.34
2023-03-01T13:36:12.036Z,97173.88
2023-03-01T13:38:38.530Z,97174.41
2023-03-01T13:41:05.857Z,97171.69
2023-03-01T13:43:41.515Z,97172.22
2023-03-01T13:46:25.070Z,97163.19
2023-03-01T13:48:57.724Z,97171.84
2023-03-01T13:51:27.190Z,97162.84
2023-03-01T13:53:56.078Z,97162.56
2023-03-01T13:56:28.761Z,97162.41
2023-03-01T13:59:06.931Z,97158.81
2023-03-01T14:01:36.218Z,97156.38
2023-03-01T14:04:18.447Z,97160.84
2023-03-01T14:06:44.988Z,97158.44
2023-03-01T14:09:26.046Z,97150.22
2023-03-01T14:12:11.294Z,97166.38
2023-03-01T14:14:59.618Z,97146.69
2023-03-01T14:17:51.011Z,97151.81
2023-03-01T14:20:21.371Z,97147.53
2023-03-01T14:22:49.584Z,97142.81
2023-03-01T14:25:28.082Z,97140.53
2023-03-01T14:28:02.527Z,97142.84
2023-03-01T14:30:43.184Z,97141.34
2023-03-01T14:33:23.922Z,97139.06
2023-03-01T14:36:02.921Z,97140.22
2023-03-01T14:38:35.858Z,97138.03
2023-03-01T14:41:16.222Z,97144.06
2023-03-01T14:43:47.903Z,97150.88
2023-03-01T14:46:38.608Z,97141.06
2023-03-01T14:49:12.408Z,97138.00
2023-03-01T14:51:40.542Z,97135.06
2023-03-01T14:54:21.803Z,97136.19
2023-03-01T14:56:48.850Z,97144.13
2023-03-01T14:59:15.343Z,97148.13
2023-03-01T15:01:44.166Z,97139.75
2023-03-01T15:04:14.559Z,97147.84
2023-03-01T15:06:42.286Z,97139.97
2023-03-01T15:09:15.789Z,97153.09
2023-03-01T15:11:44.630Z,97145.44
2023-03-01T15:14:42.980Z,97140.19
2023-03-01T15:17:40.148Z,97146.28
2023-03-01T15:20:26.570Z,97136.53
2023-03-01T15:22:54.580Z,97142.97
2023-03-01T15:25:27.027Z,97144.94
2023-03-01T15:27:55.149Z,97155.28
2023-03-01T15:30:38.242Z,97151.72
2023-03-01T15:33:29.283Z,97149.19
2023-03-01T15:36:02.042Z,97149.91
2023-03-01T15:38:31.236Z,97151.78
2023-03-01T15:40:59.436Z,97151.78
2023-03-01T15:43:43.620Z,97160.00
2023-03-01T15:46:19.151Z,97148.66
2023-03-01T15:48:48.059Z,97155.47
2023-03-01T15:51:15.960Z,97143.81
2023-03-01T15:53:54.291Z,97142.22
2023-03-01T15:56:21.884Z,97145.09
2023-03-01T15:58:48.542Z,97148.84
2023-03-01T16:01:20.204Z,97147.22
2023-03-01T16:03:46.754Z,97146.66
2023-03-01T16:06:13.648Z,97147.03
2023-03-01T16:08:41.116Z,97149.97
2023-03-01T16:11:14.921Z,97141.63
2023-03-01T16:13:41.530Z,97146.28
2023-03-01T16:16:13.524Z,97137.00
2023-03-01T16:18:40.311Z,97133.88
2023-03-01T16:21:07.247Z,97133.34
2023-03-01T16:23:33.829Z,97133.72
2023-03-01T16:26:01.454Z,97140.06
2023-03-01T16:28:29.361Z,97149.16
2023-03-01T16:30:57.258Z,97145.13
2023-03-01T16:33:32.455Z,97154.06
2023-03-01T16:36:03.175Z,97155.31
2023-03-01T16:38:31.964Z,97153.81
2023-03-01T16:40:58.500Z,97159.38
2023-03-01T16:43:25.090Z,97161.47
2023-03-01T16:45:52.193Z,97163.56
2023-03-01T16:48:18.829Z,97161.28
2023-03-01T16:50:45.418Z,97169.19
2023-03-01T16:53:12.236Z,97169.38
2023-03-01T16:55:39.015Z,97172.25
2023-03-01T16:58:06.732Z,97176.84
2023-03-01T17:00:33.346Z,97184.00
2023-03-01T17:02:59.918Z,97186.59
2023-03-01T17:05:26.917Z,97186.09
2023-03-01T17:07:56.582Z,97183.06
2023-03-01T17:10:23.125Z,97189.56
2023-03-01T17:12:51.010Z,97200.28
2023-03-01T17:15:17.969Z,97201.19
2023-03-01T17:17:44.660Z,97204.56
2023-03-01T17:20:11.704Z,97215.25
2023-03-01T17:22:38.288Z,97215.56
2023-03-01T17:25:05.275Z,97210.56
2023-03-01T17:27:35.504Z,97209.09
2023-03-01T17:30:02.495Z,97219.88
2023-03-01T17:32:29.162Z,97214.84
2023-03-01T17:34:55.834Z,97225.53
2023-03-01T17:37:22.696Z,97211.75
2023-03-01T17:39:49.285Z,97219.06
2023-03-01T17:42:15.924Z,97214.13
2023-03-01T17:44:43.788Z,97212.72
2023-03-01T17:47:11.180Z,97211.03
2023-03-01T17:49:37.722Z,97221.75
2023-03-01T17:52:04.315Z,97216.13
2023-03-01T17:54:33.347Z,97224.63
2023-03-01T17:57:00.389Z,97217.81
2023-03-01T17:59:31.311Z,97221.38
2023-03-01T18:01:58.485Z,97219.19
2023-03-01T18:04:25.263Z,97220.03
2023-03-01T18:06:51.758Z,97227.22
2023-03-01T18:09:18.391Z,97218.97
2023-03-01T18:11:46.876Z,97212.84
2023-03-01T18:14:14.499Z,97208.53
2023-03-01T18:16:41.103Z,97219.16
2023-03-01T18:19:07.697Z,97215.72
2023-03-01T18:21:34.516Z,97233.28
2023-03-01T18:24:01.622Z,97229.06
2023-03-01T18:26:29.702Z,97234.34
2023-03-01T18:28:58.379Z,97218.94
2023-03-01T18:31:25.786Z,97226.03
2023-03-01T18:33:57.362Z,97231.34
2023-03-01T18:36:27.985Z,97224.59
2023-03-01T18:38:56.364Z,97243.09
2023-03-01T18:41:25.315Z,97237.22
2023-03-01T18:43:52.211Z,97227.75
2023-03-01T18:46:20.237Z,97224.16
2023-03-01T18:48:48.076Z,97221.06
2023-03-01T18:51:17.537Z,97221.16
2023-03-01T18:53:44.878Z,97226.72
2023-03-01T18:56:12.169Z,97232.88
2023-03-01T18:58:39.206Z,97250.16
2023-03-01T19:01:12.409Z,97238.13
2023-03-01T19:03:38.901Z,97227.91
2023-03-01T19:06:05.538Z,97236.78
2023-03-01T19:08:32.448Z,97230.91
2023-03-01T19:11:01.833Z,97226.75
2023-03-01T19:13:28.659Z,97242.59
2023-03-01T19:16:07.309Z,97233.34
2023-03-01T19:18:34.901Z,97244.75
2023-03-01T19:21:04.530Z,97244.09
2023-03-01T19:23:34.919Z,97244.22
2023-03-01T19:26:03.328Z,97245.91
2023-03-01T19:28:30.216Z,97248.81
2023-03-01T19:31:05.604Z,97241.94
2023-03-01T19:33:34.298Z,97240.38
2023-03-01T19:36:01.654Z,97234.53
2023-03-01T19:38:28.706Z,97235.63
2023-03-01T19:40:56.009Z,97241.16
2023-03-01T19:43:23.311Z,97244.78
2023-03-01T19:45:54.926Z,97243.22
2023-03-01T19:48:22.424Z,97241.59
2023-03-01T19:50:51.069Z,97251.34
2023-03-01T19:53:17.695Z,97240.25
2023-03-01T19:55:44.306Z,97249.00
2023-03-01T19:58:14.116Z,97246.56
2023-03-01T20:00:45.469Z,97248.69
2023-03-01T20:03:12.310Z,97249.59
2023-03-01T20:05:39.574Z,97252.56
2023-03-01T20:08:06.450Z,97252.78
2023-03-01T20:10:34.376Z,97250.91
2023-03-01T20:13:02.606Z,97260.53
2023-03-01T20:15:29.371Z,97251.94
2023-03-01T20:17:55.868Z,97242.38
2023-03-01T20:20:22.520Z,97248.66
2023-03-01T20:22:48.996Z,97250.66
2023-03-01T20:25:15.574Z,97242.03
2023-03-01T20:27:42.263Z,97240.53
2023-03-01T20:30:09.547Z,97238.06
2023-03-01T20:32:36.105Z,97246.13
2023-03-01T20:35:03.284Z,97237.41
2023-03-01T20:37:29.857Z,97241.09
2023-03-01T20:39:56.393Z,97234.25
2023-03-01T20:42:22.904Z,97241.94
2023-03-01T20:44:49.747Z,97237.81
2023-03-01T20:47:16.264Z,97236.16
2023-03-01T20:49:42.793Z,97237.31
2023-03-01T20:52:09.290Z,97241.75
2023-03-01T20:54:36.292Z,97237.44
2023-03-01T20:57:02.850Z,97235.09
2023-03-01T20:59:29.367Z,97237.63
2023-03-01T21:01:55.922Z,97235.09
2023-03-01T21:04:22.489Z,97235.88
2023-03-01T21:06:49.103Z,97235.13
2023-03-01T21:09:15.770Z,97235.25
2023-03-01T21:11:42.372Z,97234.41
2023-03-01T21:14:09.627Z,97227.56
2023-03-01T21:16:36.643Z,97229.34
2023-03-01T21:19:06.520Z,97225.16
2023-03-01T21:21:33.271Z,97231.44
2023-03-01T21:23:59.815Z,97221.13
2023-03-01T21:26:27.865Z,97227.16
2023-03-01T21:29:03.227Z,97221.47
2023-03-01T21:31:35.181Z,97225.00
2023-03-01T21:34:05.196Z,97223.09
2023-03-01T21:36:33.349Z,97206.78
2023-03-01T21:39:02.122Z,97211.13
2023-03-01T21:41:32.105Z,97206.66
2023-03-01T21:44:01.059Z,97208.56
2023-03-01T21:46:30.900Z,97212.00
2023-03-01T21:48:57.989Z,97193.81
2023-03-01T21:51:26.848Z,97190.56
2023-03-01T21:53:55.812Z,97191.47
2023-03-01T21:56:25.475Z,97198.34
2023-03-01T21:58:52.443Z,97191.53
2023-03-01T22:01:25.399Z,97196.03
2023-03-01T22:03:52.038Z,97184.88
2023-03-01T22:06:22.812Z,97192.88
2023-03-01T22:08:56.117Z,97189.50
2023-03-01T22:11:24.082Z,97182.78
2023-03-01T22:13:52.466Z,97182.03
2023-03-01T22:16:25.866Z,97178.59
2023-03-01T22:18:52.730Z,97186.19
2023-03-01T22:21:20.512Z,97177.66
2023-03-01T22:23:47.053Z,97180.31
2023-03-01T22:26:28.579Z,97182.00
2023-03-01T22:28:57.471Z,97182.84
2023-03-01T22:31:25.190Z,97176.66
2023-03-01T22:33:51.941Z,97175.63
2023-03-01T22:36:18.680Z,97169.28
2023-03-01T22:38:45.739Z,97162.22
2023-03-01T22:41:12.515Z,97162.44
2023-03-01T22:43:39.116Z,97159.97
2023-03-01T22:46:19.311Z,97153.94
2023-03-01T22:48:47.443Z,97147.97
2023-03-01T22:51:16.457Z,97152.44
2023-03-01T22:53:43.474Z,97159.34
2023-03-01T22:56:11.816Z,97149.78
2023-03-01T22:58:38.591Z,97155.97
2023-03-01T23:01:17.970Z,97164.66
2023-03-01T23:03:45.123Z,97168.09
2023-03-01T23:06:12.340Z,97156.81
2023-03-01T23:08:39.054Z,97163.97
2023-03-01T23:11:11.858Z,97160.31
2023-03-01T23:13:38.674Z,97163.78
2023-03-01T23:16:05.638Z,97160.31
2023-03-01T23:18:32.268Z,97145.66
2023-03-01T23:20:59.106Z,97135.44
2023-03-01T23:23:25.924Z,97146.69
2023-03-01T23:25:57.228Z,97136.25
2023-03-01T23:28:25.155Z,97130.31
2023-03-01T23:31:00.331Z,97128.63
2023-03-01T23:33:37.716Z,97128.78
2023-03-01T23:36:15.941Z,97132.84
2023-03-01T23:38:42.924Z,97131.28
2023-03-01T23:41:13.510Z,97127.81
2023-03-01T23:43:40.327Z,97132.91
2023-03-01T23:46:06.919Z,97129.50
2023-03-01T23:48:33.515Z,97143.50
2023-03-01T23:51:06.211Z,97142.72
2023-03-01T23:53:36.010Z,97139.22
2023-03-01T23:56:02.927Z,97149.66
2023-03-01T23:58:29.761Z,97139.25
